createdAt,value
2022-11-25T00:05:33.159Z,42.08
2022-11-25T00:15:34.910Z,45.00
2022-11-25T00:25:41.677Z,44.78
2022-11-25T00:35:45.256Z,51.40
2022-11-25T00:45:46.944Z,51.17
2022-11-25T00:56:07.120Z,48.30
2022-11-25T01:06:11.142Z,49.63
2022-11-25T01:16:15.943Z,56.30
2022-11-25T01:26:21.466Z,57.10
2022-11-25T01:36:23.959Z,55.28
2022-11-25T01:46:27.479Z,50.95
2022-11-25T01:56:33.314Z,56.17
2022-11-25T02:06:41.340Z,56.75
2022-11-25T02:16:46.238Z,54.90
2022-11-25T02:26:48.106Z,60.67
2022-11-25T02:36:57.932Z,54.92
2022-11-25T02:46:59.573Z,55.95
2022-11-25T02:57:02.359Z,57.72
2022-11-25T03:07:04.013Z,58.63
2022-11-25T03:17:05.641Z,55.92
2022-11-25T03:27:07.224Z,55.60
2022-11-25T03:37:09.402Z,60.15
2022-11-25T03:47:11.146Z,58.28
2022-11-25T03:57:13.876Z,59.45
2022-11-25T04:07:18.720Z,57.10
2022-11-25T04:17:20.328Z,55.13
2022-11-25T04:27:21.984Z,55.85
2022-11-25T04:37:23.839Z,56.20
2022-11-25T04:47:25.536Z,60.90
2022-11-25T04:57:27.195Z,59.97
2022-11-25T05:07:29.115Z,63.10
2022-11-25T05:17:32.215Z,62.75
2022-11-25T05:27:34.872Z,56.53
2022-11-25T05:37:36.610Z,58.42
2022-11-25T05:47:39.260Z,64.88
2022-11-25T05:57:42.100Z,64.78
2022-11-25T06:07:43.918Z,67.85
2022-11-25T06:17:45.688Z,69.25
2022-11-25T06:28:11.391Z,75.97
2022-11-25T06:38:09.696Z,72.85
2022-11-25T06:48:12.357Z,82.50
2022-11-25T06:58:34.814Z,80.03
2022-11-25T07:08:37.660Z,89.95
2022-11-25T07:18:40.371Z,78.22
2022-11-25T07:28:45.286Z,96.35
2022-11-25T07:38:47.124Z,77.10
2022-11-25T07:48:52.372Z,56.63
2022-11-25T07:58:54.999Z,53.47
2022-11-25T08:08:57.946Z,45.08
2022-11-25T08:19:01.952Z,44.07
2022-11-25T08:29:05.522Z,41.28
2022-11-25T08:39:28.925Z,40.75
2022-11-25T08:49:32.796Z,33.58
2022-11-25T08:59:39.919Z,40.35
2022-11-25T09:09:41.891Z,35.47
2022-11-25T09:19:43.586Z,27.87
2022-11-25T09:29:47.251Z,26.07
2022-11-25T09:39:50.839Z,25.77
2022-11-25T09:50:09.308Z,20.95
2022-11-25T10:00:14.146Z,26.35
2022-11-25T10:10:26.285Z,21.83
2022-11-25T10:20:37.010Z,19.92
2022-11-25T10:30:42.368Z,20.97
2022-11-25T10:40:48.990Z,19.35
2022-11-25T10:51:03.626Z,25.52
2022-11-25T11:01:18.160Z,30.02
2022-11-25T11:11:24.229Z,29.25
2022-11-25T11:21:32.582Z,35.17
2022-11-25T11:31:41.037Z,35.90
2022-11-25T11:42:14.552Z,39.35
2022-11-25T11:52:25.386Z,27.77
2022-11-25T12:02:50.238Z,29.00
2022-11-25T12:13:10.840Z,25.88
2022-11-25T12:23:49.972Z,26.92
2022-11-25T12:34:14.084Z,32.17
2022-11-25T12:44:26.514Z,29.33
2022-11-25T12:54:41.150Z,30.42
2022-11-25T13:10:55.717Z,29.45
2022-11-25T13:15:56.789Z,28.00
2022-11-25T13:26:33.162Z,30.25
2022-11-25T13:36:50.610Z,26.73
2022-11-25T13:47:20.054Z,33.80
2022-11-25T13:57:35.785Z,29.73
2022-11-25T14:08:08.294Z,32.97
2022-11-25T14:19:16.759Z,27.67
2022-11-25T14:29:23.457Z,34.67
2022-11-25T14:39:46.885Z,36.40
2022-11-25T14:50:11.840Z,34.97
2022-11-25T15:00:18.806Z,44.92
2022-11-25T15:10:50.034Z,41.53
2022-11-25T15:21:01.973Z,47.38
2022-11-25T15:31:15.948Z,51.58
2022-11-25T15:41:28.822Z,48.47
2022-11-25T15:51:41.833Z,51.67
2022-11-25T16:01:43.676Z,50.77
2022-11-25T16:11:47.322Z,50.63
2022-11-25T16:22:01.275Z,51.35
2022-11-25T16:32:16.068Z,49.50
2022-11-25T16:42:22.540Z,53.42
2022-11-25T16:52:30.815Z,55.55
2022-11-25T17:02:33.757Z,57.83
2022-11-25T17:12:38.865Z,54.70
2022-11-25T17:22:45.970Z,54.63
2022-11-25T17:32:49.093Z,56.70
2022-11-25T17:42:52.781Z,57.37
2022-11-25T17:52:55.507Z,59.15
2022-11-25T18:02:57.249Z,54.10
2022-11-25T18:12:59.677Z,57.78
2022-11-25T18:23:01.561Z,55.05
2022-11-25T18:33:06.045Z,52.60
2022-11-25T18:43:16.661Z,57.40
2022-11-25T18:53:19.565Z,61.13
2022-11-25T19:03:26.413Z,56.10
2022-11-25T19:13:35.506Z,62.70
2022-11-25T19:23:37.532Z,58.75
2022-11-25T19:33:47.667Z,64.90
2022-11-25T19:44:01.383Z,71.18
2022-11-25T19:54:22.921Z,70.07
2022-11-25T20:04:25.248Z,73.57
2022-11-25T20:14:28.585Z,80.45
2022-11-25T20:24:30.777Z,77.30
2022-11-25T20:34:38.770Z,86.57
2022-11-25T20:44:44.276Z,84.35
2022-11-25T20:54:47.466Z,83.28
2022-11-25T21:04:49.633Z,76.73
2022-11-25T21:14:52.313Z,82.72
2022-11-25T21:24:54.339Z,77.07
2022-11-25T21:35:00.467Z,78.10
2022-11-25T21:45:02.751Z,81.10
2022-11-25T21:55:04.807Z,78.75
2022-11-25T22:05:18.128Z,79.82
2022-11-25T22:15:26.026Z,85.63
2022-11-25T22:25:31.267Z,88.35
2022-11-25T22:35:32.967Z,89.25
2022-11-25T22:45:34.867Z,88.97
2022-11-25T22:55:36.524Z,81.47
2022-11-25T23:05:39.634Z,92.82
2022-11-25T23:15:48.555Z,92.17
2022-11-25T23:25:50.730Z,112.38
2022-11-25T23:35:52.564Z,107.65
2022-11-25T23:45:56.537Z,107.80
